Leadville, CO

3:14 PM MST on February 10, 2016 (GMT -0700)
MesoWest | | Change Station
CLOSE
Current Station
Personal Weather Station
Location: Leadville, CO
Elevation: 11399 ft
Nearby Weather Stations

Elev 11399 ft 39.38 °N, 106.20 °W | Updated 6 hours ago

Clear
Clear
31 °F
Feels Like 19 °F
N
15
Wind Variable Wind from WNW
Gusts 24 mph

Today
High -- | Low -- °F
--% Chance of Precip.
Yesterday
High -- | Low -- °F
Precip. -- in
Pressure 30.23 in
Visibility 10.0 miles
Clouds Clear
Windchill 19 °F
Dew Point 6 °F
Humidity 33%
Rainfall in
Snow Depth Not available.
7:03 AM 5:35 PM
Waxing Crescent, 7% visible
METAR KLXV 102153Z AUTO 32010G21KT 10SM CLR 06/M16 A3036 RMK AO2 PK WND 30027/2104 SLP235 T00561156
Pressure 30.23 in
Visibility 10.0 miles
Clouds Clear
Windchill 19 °F
Dew Point 6 °F
Humidity 33%
Rainfall in
Snow Depth Not available.
7:03 AM 5:35 PM
Waxing Crescent, 7% visible
METAR KLXV 102153Z AUTO 32010G21KT 10SM CLR 06/M16 A3036 RMK AO2 PK WND 30027/2104 SLP235 T00561156

10-Day Weather Forecast

Almanac

Astronomy

Feb. 10, 2016 Rise Set
Actual Time
Civil Twilight
Nautical Twilight
Astronomical Twilight
Moon
Length of Visible Light
Length of Day
Tomorrow will be .
, % of the Moon is Illuminated

Today's Extremes

State Highs State Lows

Community

WunderPhotos

Upload Photos

1,891,956 photos uploaded!

WunderBlog® & News

Nearby

Air Quality

  Air Quality AQ Index Pollutant
Not available.

Snow Depth

Station Depth Elevation

Earthquake Activity

City Distance Mag. Time & Date
Minimum magnitude displayed is 2.5.

Coastal Water Temperatures

Place Temperature

Stations

Nearby Weather Stations

Station Location Temp. Windchill Dew Point Humidity Wind Precip. Elev Updated Type
                   

Watches & Warnings

There are currently no watches in effect.